sensor_id;sensor_type;location;lat;lon;timestamp;P1;durP1;ratioP1;P2;durP2;ratioP2
80123;SDS011;69433;48.642;9.142;2023-06-04T00:01:54;3.83;;;3.03;;
80123;SDS011;69433;48.642;9.142;2023-06-04T00:04:20;3.95;;;3.20;;
80123;SDS011;69433;48.642;9.142;2023-06-04T00:06:47;3.75;;;3.03;;
80123;SDS011;69433;48.642;9.142;2023-06-04T00:09:12;4.20;;;2.90;;
80123;SDS011;69433;48.642;9.142;2023-06-04T00:11:37;3.88;;;2.95;;
80123;SDS011;69433;48.642;9.142;2023-06-04T00:14:03;4.05;;;3.17;;
80123;SDS011;69433;48.642;9.142;2023-06-04T00:16:28;4.43;;;3.35;;
80123;SDS011;69433;48.642;9.142;2023-06-04T00:18:53;4.65;;;3.67;;
80123;SDS011;69433;48.642;9.142;2023-06-04T00:21:19;4.10;;;3.20;;
80123;SDS011;69433;48.642;9.142;2023-06-04T00:23:44;5.05;;;3.63;;
80123;SDS011;69433;48.642;9.142;2023-06-04T00:26:09;4.22;;;3.50;;
80123;SDS011;69433;48.642;9.142;2023-06-04T00:28:35;4.15;;;3.20;;
80123;SDS011;69433;48.642;9.142;2023-06-04T00:31:00;4.93;;;3.40;;
80123;SDS011;69433;48.642;9.142;2023-06-04T00:33:27;4.20;;;3.10;;
80123;SDS011;69433;48.642;9.142;2023-06-04T00:35:52;4.30;;;3.50;;
80123;SDS011;69433;48.642;9.142;2023-06-04T00:38:17;4.38;;;3.22;;
80123;SDS011;69433;48.642;9.142;2023-06-04T00:40:43;3.90;;;3.20;;
80123;SDS011;69433;48.642;9.142;2023-06-04T00:43:08;4.57;;;3.45;;
80123;SDS011;69433;48.642;9.142;2023-06-04T00:45:33;4.15;;;3.33;;
80123;SDS011;69433;48.642;9.142;2023-06-04T00:47:59;4.65;;;3.60;;
80123;SDS011;69433;48.642;9.142;2023-06-04T00:50:25;4.28;;;3.42;;
80123;SDS011;69433;48.642;9.142;2023-06-04T00:52:50;5.65;;;3.70;;
80123;SDS011;69433;48.642;9.142;2023-06-04T00:55:16;3.83;;;3.35;;
80123;SDS011;69433;48.642;9.142;2023-06-04T00:57:43;3.88;;;3.22;;
80123;SDS011;69433;48.642;9.142;2023-06-04T01:00:09;5.03;;;3.28;;
80123;SDS011;69433;48.642;9.142;2023-06-04T01:02:37;3.30;;;2.90;;
80123;SDS011;69433;48.642;9.142;2023-06-04T01:05:20;4.32;;;3.63;;
80123;SDS011;69433;48.642;9.142;2023-06-04T01:07:54;4.03;;;3.20;;
80123;SDS011;69433;48.642;9.142;2023-06-04T01:10:21;4.50;;;3.42;;
80123;SDS011;69433;48.642;9.142;2023-06-04T01:12:47;3.97;;;3.28;;
80123;SDS011;69433;48.642;9.142;2023-06-04T01:15:12;3.92;;;3.15;;
80123;SDS011;69433;48.642;9.142;2023-06-04T01:17:41;4.03;;;3.15;;
80123;SDS011;69433;48.642;9.142;2023-06-04T01:25:40;4.35;;;3.20;;
80123;SDS011;69433;48.642;9.142;2023-06-04T01:28:09;4.82;;;3.75;;
80123;SDS011;69433;48.642;9.142;2023-06-04T01:30:41;4.38;;;3.42;;
80123;SDS011;69433;48.642;9.142;2023-06-04T01:33:10;4.22;;;3.42;;
80123;SDS011;69433;48.642;9.142;2023-06-04T01:35:47;4.20;;;3.20;;
80123;SDS011;69433;48.642;9.142;2023-06-04T01:38:12;4.55;;;3.50;;
80123;SDS011;69433;48.642;9.142;2023-06-04T01:40:38;4.50;;;3.55;;
80123;SDS011;69433;48.642;9.142;2023-06-04T01:43:04;4.45;;;3.45;;
80123;SDS011;69433;48.642;9.142;2023-06-04T01:45:29;4.35;;;3.55;;
80123;SDS011;69433;48.642;9.142;2023-06-04T01:47:55;4.20;;;3.40;;
80123;SDS011;69433;48.642;9.142;2023-06-04T01:50:20;5.03;;;3.50;;
80123;SDS011;69433;48.642;9.142;2023-06-04T01:52:46;3.80;;;3.17;;
80123;SDS011;69433;48.642;9.142;2023-06-04T01:55:12;4.28;;;3.30;;
80123;SDS011;69433;48.642;9.142;2023-06-04T01:57:43;3.83;;;3.15;;
80123;SDS011;69433;48.642;9.142;2023-06-04T02:00:09;3.80;;;3.20;;
80123;SDS011;69433;48.642;9.142;2023-06-04T02:02:38;3.92;;;3.25;;
80123;SDS011;69433;48.642;9.142;2023-06-04T02:07:39;4.43;;;3.35;;
80123;SDS011;69433;48.642;9.142;2023-06-04T02:10:06;4.70;;;3.17;;
80123;SDS011;69433;48.642;9.142;2023-06-04T02:12:38;3.60;;;2.92;;
80123;SDS011;69433;48.642;9.142;2023-06-04T02:15:05;7.05;;;3.60;;
80123;SDS011;69433;48.642;9.142;2023-06-04T02:17:31;4.55;;;3.40;;
80123;SDS011;69433;48.642;9.142;2023-06-04T02:19:57;3.85;;;3.15;;
80123;SDS011;69433;48.642;9.142;2023-06-04T02:22:24;4.10;;;3.65;;
80123;SDS011;69433;48.642;9.142;2023-06-04T02:24:50;3.92;;;3.47;;
80123;SDS011;69433;48.642;9.142;2023-06-04T02:27:15;4.45;;;3.38;;
80123;SDS011;69433;48.642;9.142;2023-06-04T02:29:43;4.68;;;3.17;;
80123;SDS011;69433;48.642;9.142;2023-06-04T02:32:09;3.60;;;3.15;;
80123;SDS011;69433;48.642;9.142;2023-06-04T02:34:35;4.40;;;3.28;;
80123;SDS011;69433;48.642;9.142;2023-06-04T02:37:01;4.97;;;3.40;;
80123;SDS011;69433;48.642;9.142;2023-06-04T02:39:27;3.92;;;3.40;;
80123;SDS011;69433;48.642;9.142;2023-06-04T02:41:52;4.72;;;3.60;;
80123;SDS011;69433;48.642;9.142;2023-06-04T02:44:17;4.05;;;3.03;;
80123;SDS011;69433;48.642;9.142;2023-06-04T02:46:43;4.55;;;3.33;;
80123;SDS011;69433;48.642;9.142;2023-06-04T02:49:09;3.55;;;2.97;;
80123;SDS011;69433;48.642;9.142;2023-06-04T02:51:34;4.30;;;3.28;;
80123;SDS011;69433;48.642;9.142;2023-06-04T02:54:00;4.45;;;3.42;;
80123;SDS011;69433;48.642;9.142;2023-06-04T02:56:25;4.68;;;3.22;;
80123;SDS011;69433;48.642;9.142;2023-06-04T02:58:52;3.92;;;3.50;;
80123;SDS011;69433;48.642;9.142;2023-06-04T03:01:20;4.32;;;3.40;;
80123;SDS011;69433;48.642;9.142;2023-06-04T03:03:47;5.28;;;3.78;;
80123;SDS011;69433;48.642;9.142;2023-06-04T03:06:13;4.70;;;3.78;;
80123;SDS011;69433;48.642;9.142;2023-06-04T03:08:40;4.25;;;3.13;;
80123;SDS011;69433;48.642;9.142;2023-06-04T03:11:05;3.42;;;3.13;;
80123;SDS011;69433;48.642;9.142;2023-06-04T03:13:31;3.90;;;3.33;;
80123;SDS011;69433;48.642;9.142;2023-06-04T03:15:57;4.13;;;3.35;;
80123;SDS011;69433;48.642;9.142;2023-06-04T03:18:25;3.90;;;3.35;;
80123;SDS011;69433;48.642;9.142;2023-06-04T03:20:51;4.10;;;3.40;;
80123;SDS011;69433;48.642;9.142;2023-06-04T03:23:16;4.63;;;3.40;;
80123;SDS011;69433;48.642;9.142;2023-06-04T03:25:41;3.78;;;3.25;;
80123;SDS011;69433;48.642;9.142;2023-06-04T03:28:07;4.20;;;3.47;;
80123;SDS011;69433;48.642;9.142;2023-06-04T03:30:32;4.22;;;3.55;;
80123;SDS011;69433;48.642;9.142;2023-06-04T03:32:57;3.97;;;3.17;;
80123;SDS011;69433;48.642;9.142;2023-06-04T03:35:23;4.28;;;3.38;;
80123;SDS011;69433;48.642;9.142;2023-06-04T03:37:48;4.20;;;3.22;;
80123;SDS011;69433;48.642;9.142;2023-06-04T03:40:13;4.07;;;3.22;;
80123;SDS011;69433;48.642;9.142;2023-06-04T03:42:38;3.72;;;3.22;;
80123;SDS011;69433;48.642;9.142;2023-06-04T03:45:05;4.03;;;3.58;;
80123;SDS011;69433;48.642;9.142;2023-06-04T03:47:31;4.07;;;3.30;;
80123;SDS011;69433;48.642;9.142;2023-06-04T03:49:56;4.15;;;3.35;;
80123;SDS011;69433;48.642;9.142;2023-06-04T03:52:21;4.32;;;3.38;;
80123;SDS011;69433;48.642;9.142;2023-06-04T03:54:47;4.55;;;3.47;;
80123;SDS011;69433;48.642;9.142;2023-06-04T03:57:12;3.92;;;3.25;;
80123;SDS011;69433;48.642;9.142;2023-06-04T03:59:37;4.20;;;3.45;;
80123;SDS011;69433;48.642;9.142;2023-06-04T04:02:02;5.05;;;3.25;;
80123;SDS011;69433;48.642;9.142;2023-06-04T04:04:33;4.95;;;3.70;;
80123;SDS011;69433;48.642;9.142;2023-06-04T04:06:58;4.82;;;3.50;;
80123;SDS011;69433;48.642;9.142;2023-06-04T04:09:25;4.43;;;3.38;;
80123;SDS011;69433;48.642;9.142;2023-06-04T04:11:51;3.88;;;3.40;;
80123;SDS011;69433;48.642;9.142;2023-06-04T04:14:16;4.63;;;3.47;;
80123;SDS011;69433;48.642;9.142;2023-06-04T04:16:41;4.55;;;3.45;;
80123;SDS011;69433;48.642;9.142;2023-06-04T04:19:07;4.43;;;3.50;;
80123;SDS011;69433;48.642;9.142;2023-06-04T04:21:33;4.50;;;3.40;;
80123;SDS011;69433;48.642;9.142;2023-06-04T04:24:01;4.63;;;3.55;;
80123;SDS011;69433;48.642;9.142;2023-06-04T04:26:27;3.83;;;3.17;;
80123;SDS011;69433;48.642;9.142;2023-06-04T04:28:53;4.43;;;3.30;;
80123;SDS011;69433;48.642;9.142;2023-06-04T04:31:23;4.63;;;3.30;;
80123;SDS011;69433;48.642;9.142;2023-06-04T04:33:55;4.03;;;3.33;;
80123;SDS011;69433;48.642;9.142;2023-06-04T04:36:21;5.32;;;3.65;;
80123;SDS011;69433;48.642;9.142;2023-06-04T04:38:46;4.90;;;3.50;;
80123;SDS011;69433;48.642;9.142;2023-06-04T04:41:18;4.63;;;3.58;;
80123;SDS011;69433;48.642;9.142;2023-06-04T04:43:45;4.15;;;3.58;;
80123;SDS011;69433;48.642;9.142;2023-06-04T04:46:11;4.13;;;3.38;;
80123;SDS011;69433;48.642;9.142;2023-06-04T04:48:36;4.20;;;3.60;;
80123;SDS011;69433;48.642;9.142;2023-06-04T04:51:03;4.38;;;3.58;;
80123;SDS011;69433;48.642;9.142;2023-06-04T04:53:28;4.40;;;3.55;;
80123;SDS011;69433;48.642;9.142;2023-06-04T04:55:54;4.85;;;3.50;;
80123;SDS011;69433;48.642;9.142;2023-06-04T04:58:19;4.15;;;3.53;;
80123;SDS011;69433;48.642;9.142;2023-06-04T05:00:44;4.93;;;3.50;;
80123;SDS011;69433;48.642;9.142;2023-06-04T05:03:12;4.57;;;3.50;;
80123;SDS011;69433;48.642;9.142;2023-06-04T05:05:38;4.22;;;3.33;;
80123;SDS011;69433;48.642;9.142;2023-06-04T05:08:04;4.43;;;3.63;;
80123;SDS011;69433;48.642;9.142;2023-06-04T05:10:30;4.50;;;3.20;;
80123;SDS011;69433;48.642;9.142;2023-06-04T05:12:57;4.50;;;3.30;;
80123;SDS011;69433;48.642;9.142;2023-06-04T05:15:24;4.45;;;3.60;;
80123;SDS011;69433;48.642;9.142;2023-06-04T05:17:51;4.25;;;3.42;;
80123;SDS011;69433;48.642;9.142;2023-06-04T05:20:17;4.80;;;3.60;;
80123;SDS011;69433;48.642;9.142;2023-06-04T05:22:43;4.22;;;3.58;;
80123;SDS011;69433;48.642;9.142;2023-06-04T05:25:10;4.70;;;3.55;;
80123;SDS011;69433;48.642;9.142;2023-06-04T05:27:35;4.32;;;3.67;;
80123;SDS011;69433;48.642;9.142;2023-06-04T05:30:01;5.07;;;3.70;;
80123;SDS011;69433;48.642;9.142;2023-06-04T05:32:28;3.90;;;3.40;;
80123;SDS011;69433;48.642;9.142;2023-06-04T05:34:53;4.50;;;3.50;;
80123;SDS011;69433;48.642;9.142;2023-06-04T05:37:22;4.28;;;3.40;;
80123;SDS011;69433;48.642;9.142;2023-06-04T05:39:49;3.92;;;3.15;;
80123;SDS011;69433;48.642;9.142;2023-06-04T05:42:15;4.47;;;3.88;;
80123;SDS011;69433;48.642;9.142;2023-06-04T05:44:40;4.60;;;3.20;;
80123;SDS011;69433;48.642;9.142;2023-06-04T05:47:06;4.18;;;3.40;;
80123;SDS011;69433;48.642;9.142;2023-06-04T05:49:33;4.20;;;3.25;;
80123;SDS011;69433;48.642;9.142;2023-06-04T05:51:59;4.95;;;3.78;;
80123;SDS011;69433;48.642;9.142;2023-06-04T05:54:26;4.72;;;3.85;;
80123;SDS011;69433;48.642;9.142;2023-06-04T05:56:52;3.95;;;3.17;;
80123;SDS011;69433;48.642;9.142;2023-06-04T05:59:17;4.57;;;3.78;;
80123;SDS011;69433;48.642;9.142;2023-06-04T06:01:42;4.63;;;3.17;;
80123;SDS011;69433;48.642;9.142;2023-06-04T06:04:08;4.47;;;3.92;;
80123;SDS011;69433;48.642;9.142;2023-06-04T06:06:33;5.47;;;3.60;;
80123;SDS011;69433;48.642;9.142;2023-06-04T06:09:00;4.15;;;3.33;;
80123;SDS011;69433;48.642;9.142;2023-06-04T06:11:25;4.72;;;3.40;;
80123;SDS011;69433;48.642;9.142;2023-06-04T06:13:51;4.88;;;3.70;;
80123;SDS011;69433;48.642;9.142;2023-06-04T06:16:17;4.60;;;3.50;;
80123;SDS011;69433;48.642;9.142;2023-06-04T06:18:43;3.90;;;3.25;;
80123;SDS011;69433;48.642;9.142;2023-06-04T06:21:08;4.20;;;3.55;;
80123;SDS011;69433;48.642;9.142;2023-06-04T06:23:34;4.38;;;3.40;;
80123;SDS011;69433;48.642;9.142;2023-06-04T06:25:59;4.05;;;3.25;;
80123;SDS011;69433;48.642;9.142;2023-06-04T06:28:27;3.85;;;3.33;;
80123;SDS011;69433;48.642;9.142;2023-06-04T06:30:52;4.68;;;3.42;;
80123;SDS011;69433;48.642;9.142;2023-06-04T06:33:18;4.75;;;3.28;;
80123;SDS011;69433;48.642;9.142;2023-06-04T06:35:46;4.35;;;3.60;;
80123;SDS011;69433;48.642;9.142;2023-06-04T06:38:12;3.90;;;3.13;;
80123;SDS011;69433;48.642;9.142;2023-06-04T06:40:37;3.90;;;3.30;;
80123;SDS011;69433;48.642;9.142;2023-06-04T06:43:03;3.83;;;3.00;;
80123;SDS011;69433;48.642;9.142;2023-06-04T06:45:28;4.68;;;3.45;;
80123;SDS011;69433;48.642;9.142;2023-06-04T06:47:53;4.03;;;3.20;;
80123;SDS011;69433;48.642;9.142;2023-06-04T06:50:18;4.15;;;3.17;;
80123;SDS011;69433;48.642;9.142;2023-06-04T06:52:44;4.60;;;3.53;;
80123;SDS011;69433;48.642;9.142;2023-06-04T06:55:09;4.40;;;3.53;;
80123;SDS011;69433;48.642;9.142;2023-06-04T06:57:35;4.30;;;3.50;;
80123;SDS011;69433;48.642;9.142;2023-06-04T07:00:00;3.83;;;3.17;;
80123;SDS011;69433;48.642;9.142;2023-06-04T07:02:26;4.05;;;3.15;;
80123;SDS011;69433;48.642;9.142;2023-06-04T07:04:51;4.07;;;3.25;;
80123;SDS011;69433;48.642;9.142;2023-06-04T07:07:16;4.00;;;3.10;;
80123;SDS011;69433;48.642;9.142;2023-06-04T07:09:42;3.65;;;2.88;;
80123;SDS011;69433;48.642;9.142;2023-06-04T07:12:07;4.00;;;3.13;;
80123;SDS011;69433;48.642;9.142;2023-06-04T07:14:32;3.85;;;3.00;;
80123;SDS011;69433;48.642;9.142;2023-06-04T07:16:58;4.53;;;3.22;;
80123;SDS011;69433;48.642;9.142;2023-06-04T07:19:23;4.32;;;3.22;;
80123;SDS011;69433;48.642;9.142;2023-06-04T07:21:49;4.18;;;3.25;;
80123;SDS011;69433;48.642;9.142;2023-06-04T07:24:15;3.67;;;3.00;;
80123;SDS011;69433;48.642;9.142;2023-06-04T07:26:40;3.65;;;2.90;;
80123;SDS011;69433;48.642;9.142;2023-06-04T07:29:06;3.55;;;2.78;;
80123;SDS011;69433;48.642;9.142;2023-06-04T07:31:32;4.43;;;3.42;;
80123;SDS011;69433;48.642;9.142;2023-06-04T07:33:57;4.22;;;2.97;;
80123;SDS011;69433;48.642;9.142;2023-06-04T07:36:22;3.78;;;2.90;;
80123;SDS011;69433;48.642;9.142;2023-06-04T07:38:48;4.18;;;3.30;;
80123;SDS011;69433;48.642;9.142;2023-06-04T07:41:13;4.20;;;2.92;;
80123;SDS011;69433;48.642;9.142;2023-06-04T07:43:38;3.90;;;2.97;;
80123;SDS011;69433;48.642;9.142;2023-06-04T07:46:04;4.22;;;3.22;;
80123;SDS011;69433;48.642;9.142;2023-06-04T07:48:30;4.78;;;3.22;;
80123;SDS011;69433;48.642;9.142;2023-06-04T07:51:01;4.18;;;3.03;;
80123;SDS011;69433;48.642;9.142;2023-06-04T07:53:27;3.40;;;2.70;;
80123;SDS011;69433;48.642;9.142;2023-06-04T07:55:53;4.35;;;3.10;;
80123;SDS011;69433;48.642;9.142;2023-06-04T07:58:19;3.95;;;3.08;;
80123;SDS011;69433;48.642;9.142;2023-06-04T08:00:44;4.10;;;2.90;;
80123;SDS011;69433;48.642;9.142;2023-06-04T08:03:10;4.18;;;3.08;;
80123;SDS011;69433;48.642;9.142;2023-06-04T08:05:35;4.18;;;3.38;;
80123;SDS011;69433;48.642;9.142;2023-06-04T08:08:01;3.50;;;2.83;;
80123;SDS011;69433;48.642;9.142;2023-06-04T08:10:26;4.80;;;3.08;;
80123;SDS011;69433;48.642;9.142;2023-06-04T08:12:52;3.83;;;3.22;;
80123;SDS011;69433;48.642;9.142;2023-06-04T08:15:17;3.75;;;2.88;;
80123;SDS011;69433;48.642;9.142;2023-06-04T08:17:42;3.58;;;3.05;;
80123;SDS011;69433;48.642;9.142;2023-06-04T08:20:08;5.22;;;3.22;;
80123;SDS011;69433;48.642;9.142;2023-06-04T08:22:36;3.53;;;2.90;;
80123;SDS011;69433;48.642;9.142;2023-06-04T08:25:02;3.55;;;2.88;;
80123;SDS011;69433;48.642;9.142;2023-06-04T08:27:28;3.53;;;2.75;;
80123;SDS011;69433;48.642;9.142;2023-06-04T08:30:03;3.47;;;2.90;;
80123;SDS011;69433;48.642;9.142;2023-06-04T08:32:29;4.03;;;3.17;;
80123;SDS011;69433;48.642;9.142;2023-06-04T08:34:55;3.88;;;2.88;;
80123;SDS011;69433;48.642;9.142;2023-06-04T08:37:20;5.00;;;2.75;;
80123;SDS011;69433;48.642;9.142;2023-06-04T08:39:45;3.35;;;2.88;;
80123;SDS011;69433;48.642;9.142;2023-06-04T08:42:16;3.85;;;3.10;;
80123;SDS011;69433;48.642;9.142;2023-06-04T08:44:50;4.35;;;3.10;;
80123;SDS011;69433;48.642;9.142;2023-06-04T08:47:17;4.07;;;2.85;;
80123;SDS011;69433;48.642;9.142;2023-06-04T08:49:44;4.10;;;2.80;;
80123;SDS011;69433;48.642;9.142;2023-06-04T08:52:14;3.70;;;2.58;;
80123;SDS011;69433;48.642;9.142;2023-06-04T08:54:39;3.40;;;2.80;;
80123;SDS011;69433;48.642;9.142;2023-06-04T08:57:06;3.83;;;2.90;;
80123;SDS011;69433;48.642;9.142;2023-06-04T08:59:33;3.30;;;2.60;;
80123;SDS011;69433;48.642;9.142;2023-06-04T09:01:58;3.83;;;3.03;;
80123;SDS011;69433;48.642;9.142;2023-06-04T09:04:24;3.45;;;2.80;;
80123;SDS011;69433;48.642;9.142;2023-06-04T09:06:50;4.15;;;3.13;;
80123;SDS011;69433;48.642;9.142;2023-06-04T09:09:17;3.63;;;2.80;;
80123;SDS011;69433;48.642;9.142;2023-06-04T09:14:19;3.95;;;2.90;;
80123;SDS011;69433;48.642;9.142;2023-06-04T09:16:49;3.10;;;2.50;;
80123;SDS011;69433;48.642;9.142;2023-06-04T09:19:16;3.70;;;2.80;;
80123;SDS011;69433;48.642;9.142;2023-06-04T09:21:46;3.60;;;2.92;;
80123;SDS011;69433;48.642;9.142;2023-06-04T09:24:20;3.65;;;3.00;;
80123;SDS011;69433;48.642;9.142;2023-06-04T09:26:47;3.42;;;2.60;;
80123;SDS011;69433;48.642;9.142;2023-06-04T09:29:12;3.70;;;2.70;;
80123;SDS011;69433;48.642;9.142;2023-06-04T09:31:39;3.65;;;2.95;;
80123;SDS011;69433;48.642;9.142;2023-06-04T09:34:15;4.15;;;3.17;;
80123;SDS011;69433;48.642;9.142;2023-06-04T09:36:52;4.55;;;2.85;;
80123;SDS011;69433;48.642;9.142;2023-06-04T09:39:18;3.80;;;3.05;;
80123;SDS011;69433;48.642;9.142;2023-06-04T09:41:43;3.53;;;2.88;;
80123;SDS011;69433;48.642;9.142;2023-06-04T09:44:09;3.50;;;2.75;;
80123;SDS011;69433;48.642;9.142;2023-06-04T09:46:38;3.33;;;2.72;;
80123;SDS011;69433;48.642;9.142;2023-06-04T09:49:04;4.35;;;2.97;;
80123;SDS011;69433;48.642;9.142;2023-06-04T09:51:30;3.83;;;2.90;;
80123;SDS011;69433;48.642;9.142;2023-06-04T09:53:57;4.05;;;2.83;;
80123;SDS011;69433;48.642;9.142;2023-06-04T09:56:24;3.55;;;3.17;;
80123;SDS011;69433;48.642;9.142;2023-06-04T09:58:49;3.35;;;2.60;;
80123;SDS011;69433;48.642;9.142;2023-06-04T10:01:22;4.18;;;2.95;;
80123;SDS011;69433;48.642;9.142;2023-06-04T10:03:51;4.13;;;3.00;;
80123;SDS011;69433;48.642;9.142;2023-06-04T10:06:18;3.47;;;2.67;;
80123;SDS011;69433;48.642;9.142;2023-06-04T10:08:45;3.67;;;2.70;;
80123;SDS011;69433;48.642;9.142;2023-06-04T10:11:12;4.72;;;2.85;;
80123;SDS011;69433;48.642;9.142;2023-06-04T10:13:41;3.92;;;2.90;;
80123;SDS011;69433;48.642;9.142;2023-06-04T10:16:15;3.40;;;2.40;;
80123;SDS011;69433;48.642;9.142;2023-06-04T10:18:40;3.50;;;2.60;;
80123;SDS011;69433;48.642;9.142;2023-06-04T10:21:06;3.90;;;2.72;;
80123;SDS011;69433;48.642;9.142;2023-06-04T10:23:34;3.58;;;2.78;;
80123;SDS011;69433;48.642;9.142;2023-06-04T10:26:00;3.92;;;2.78;;
80123;SDS011;69433;48.642;9.142;2023-06-04T10:28:26;3.35;;;2.72;;
80123;SDS011;69433;48.642;9.142;2023-06-04T10:30:51;3.58;;;2.88;;
80123;SDS011;69433;48.642;9.142;2023-06-04T10:33:20;3.50;;;2.65;;
80123;SDS011;69433;48.642;9.142;2023-06-04T10:36:14;3.20;;;2.50;;
80123;SDS011;69433;48.642;9.142;2023-06-04T10:38:48;4.03;;;2.78;;
80123;SDS011;69433;48.642;9.142;2023-06-04T10:41:14;3.40;;;2.92;;
80123;SDS011;69433;48.642;9.142;2023-06-04T10:43:41;3.85;;;3.05;;
80123;SDS011;69433;48.642;9.142;2023-06-04T10:46:13;3.72;;;3.13;;
80123;SDS011;69433;48.642;9.142;2023-06-04T10:48:49;3.05;;;2.60;;
80123;SDS011;69433;48.642;9.142;2023-06-04T10:51:17;3.40;;;2.80;;
80123;SDS011;69433;48.642;9.142;2023-06-04T10:53:56;4.07;;;2.80;;
80123;SDS011;69433;48.642;9.142;2023-06-04T10:56:26;3.58;;;2.88;;
80123;SDS011;69433;48.642;9.142;2023-06-04T10:58:52;3.58;;;2.80;;
80123;SDS011;69433;48.642;9.142;2023-06-04T11:01:27;3.50;;;2.72;;
80123;SDS011;69433;48.642;9.142;2023-06-04T11:03:54;4.05;;;2.85;;
80123;SDS011;69433;48.642;9.142;2023-06-04T11:06:22;3.70;;;2.72;;
80123;SDS011;69433;48.642;9.142;2023-06-04T11:09:14;3.00;;;2.45;;
80123;SDS011;69433;48.642;9.142;2023-06-04T11:11:41;3.33;;;2.47;;
80123;SDS011;69433;48.642;9.142;2023-06-04T11:14:07;3.28;;;2.63;;
80123;SDS011;69433;48.642;9.142;2023-06-04T11:16:33;3.47;;;2.70;;
80123;SDS011;69433;48.642;9.142;2023-06-04T11:18:59;3.40;;;2.72;;
80123;SDS011;69433;48.642;9.142;2023-06-04T11:21:24;3.40;;;2.85;;
80123;SDS011;69433;48.642;9.142;2023-06-04T11:23:54;4.00;;;2.80;;
80123;SDS011;69433;48.642;9.142;2023-06-04T11:26:21;3.10;;;2.50;;
80123;SDS011;69433;48.642;9.142;2023-06-04T11:28:48;4.68;;;2.90;;
80123;SDS011;69433;48.642;9.142;2023-06-04T11:31:14;3.45;;;2.60;;
80123;SDS011;69433;48.642;9.142;2023-06-04T11:33:46;2.97;;;2.35;;
80123;SDS011;69433;48.642;9.142;2023-06-04T11:36:28;3.70;;;2.75;;
80123;SDS011;69433;48.642;9.142;2023-06-04T11:39:07;3.22;;;2.50;;
80123;SDS011;69433;48.642;9.142;2023-06-04T11:41:33;4.20;;;2.90;;
80123;SDS011;69433;48.642;9.142;2023-06-04T11:44:06;3.92;;;2.92;;
80123;SDS011;69433;48.642;9.142;2023-06-04T11:46:32;3.72;;;2.70;;
80123;SDS011;69433;48.642;9.142;2023-06-04T11:49:00;3.15;;;2.47;;
80123;SDS011;69433;48.642;9.142;2023-06-04T11:51:27;3.10;;;2.55;;
80123;SDS011;69433;48.642;9.142;2023-06-04T11:53:52;3.10;;;2.45;;
80123;SDS011;69433;48.642;9.142;2023-06-04T11:56:18;3.50;;;2.80;;
80123;SDS011;69433;48.642;9.142;2023-06-04T11:58:44;3.83;;;2.83;;
80123;SDS011;69433;48.642;9.142;2023-06-04T12:01:11;3.90;;;2.60;;
80123;SDS011;69433;48.642;9.142;2023-06-04T12:03:41;3.72;;;2.55;;
80123;SDS011;69433;48.642;9.142;2023-06-04T12:06:17;3.45;;;2.67;;
80123;SDS011;69433;48.642;9.142;2023-06-04T12:08:55;3.65;;;2.65;;
80123;SDS011;69433;48.642;9.142;2023-06-04T12:11:24;3.55;;;2.70;;
80123;SDS011;69433;48.642;9.142;2023-06-04T12:13:52;3.28;;;2.80;;
80123;SDS011;69433;48.642;9.142;2023-06-04T12:16:18;3.03;;;2.58;;
80123;SDS011;69433;48.642;9.142;2023-06-04T12:18:44;3.58;;;2.55;;
80123;SDS011;69433;48.642;9.142;2023-06-04T12:23:51;4.65;;;2.88;;
80123;SDS011;69433;48.642;9.142;2023-06-04T12:26:31;3.30;;;2.63;;
80123;SDS011;69433;48.642;9.142;2023-06-04T12:29:08;3.88;;;2.70;;
80123;SDS011;69433;48.642;9.142;2023-06-04T12:31:38;3.88;;;2.88;;
80123;SDS011;69433;48.642;9.142;2023-06-04T12:34:04;3.20;;;2.53;;
80123;SDS011;69433;48.642;9.142;2023-06-04T12:36:29;3.63;;;2.75;;
80123;SDS011;69433;48.642;9.142;2023-06-04T12:38:57;4.00;;;2.55;;
80123;SDS011;69433;48.642;9.142;2023-06-04T12:41:25;3.30;;;2.83;;
80123;SDS011;69433;48.642;9.142;2023-06-04T12:43:51;3.25;;;2.70;;
80123;SDS011;69433;48.642;9.142;2023-06-04T12:46:16;3.20;;;2.70;;
80123;SDS011;69433;48.642;9.142;2023-06-04T12:48:52;3.78;;;2.47;;
80123;SDS011;69433;48.642;9.142;2023-06-04T12:51:18;3.53;;;2.65;;
80123;SDS011;69433;48.642;9.142;2023-06-04T12:53:45;3.15;;;2.58;;
80123;SDS011;69433;48.642;9.142;2023-06-04T12:56:11;3.85;;;2.63;;
80123;SDS011;69433;48.642;9.142;2023-06-04T12:58:36;3.30;;;2.55;;
80123;SDS011;69433;48.642;9.142;2023-06-04T13:01:02;4.05;;;2.67;;
80123;SDS011;69433;48.642;9.142;2023-06-04T13:03:29;4.00;;;2.97;;
80123;SDS011;69433;48.642;9.142;2023-06-04T13:05:55;3.65;;;2.80;;
80123;SDS011;69433;48.642;9.142;2023-06-04T13:08:20;3.65;;;2.60;;
80123;SDS011;69433;48.642;9.142;2023-06-04T13:10:46;3.45;;;2.70;;
80123;SDS011;69433;48.642;9.142;2023-06-04T13:13:13;4.15;;;2.72;;
80123;SDS011;69433;48.642;9.142;2023-06-04T13:15:40;3.33;;;2.83;;
80123;SDS011;69433;48.642;9.142;2023-06-04T13:18:06;3.10;;;2.60;;
80123;SDS011;69433;48.642;9.142;2023-06-04T13:20:32;3.10;;;2.45;;
80123;SDS011;69433;48.642;9.142;2023-06-04T13:22:57;3.15;;;2.70;;
80123;SDS011;69433;48.642;9.142;2023-06-04T13:25:22;3.10;;;2.58;;
80123;SDS011;69433;48.642;9.142;2023-06-04T13:27:48;3.50;;;2.72;;
80123;SDS011;69433;48.642;9.142;2023-06-04T13:30:13;3.30;;;2.45;;
80123;SDS011;69433;48.642;9.142;2023-06-04T13:32:38;4.20;;;2.85;;
80123;SDS011;69433;48.642;9.142;2023-06-04T13:35:04;3.22;;;2.53;;
80123;SDS011;69433;48.642;9.142;2023-06-04T13:37:30;3.40;;;2.78;;
80123;SDS011;69433;48.642;9.142;2023-06-04T13:40:03;3.75;;;2.70;;
80123;SDS011;69433;48.642;9.142;2023-06-04T13:42:29;3.35;;;2.80;;
80123;SDS011;69433;48.642;9.142;2023-06-04T13:44:54;3.13;;;2.65;;
80123;SDS011;69433;48.642;9.142;2023-06-04T13:47:20;3.00;;;2.53;;
80123;SDS011;69433;48.642;9.142;2023-06-04T13:49:46;3.88;;;3.00;;
80123;SDS011;69433;48.642;9.142;2023-06-04T13:52:12;3.60;;;2.88;;
80123;SDS011;69433;48.642;9.142;2023-06-04T13:54:37;3.13;;;2.65;;
80123;SDS011;69433;48.642;9.142;2023-06-04T13:57:02;3.58;;;2.65;;
80123;SDS011;69433;48.642;9.142;2023-06-04T13:59:31;3.67;;;2.78;;
80123;SDS011;69433;48.642;9.142;2023-06-04T14:01:57;4.13;;;2.97;;
80123;SDS011;69433;48.642;9.142;2023-06-04T14:04:23;4.00;;;2.90;;
80123;SDS011;69433;48.642;9.142;2023-06-04T14:06:48;3.92;;;2.80;;
80123;SDS011;69433;48.642;9.142;2023-06-04T14:11:42;3.63;;;2.70;;
80123;SDS011;69433;48.642;9.142;2023-06-04T14:14:08;3.38;;;2.60;;
80123;SDS011;69433;48.642;9.142;2023-06-04T14:16:34;3.10;;;2.53;;
80123;SDS011;69433;48.642;9.142;2023-06-04T14:18:59;3.60;;;2.55;;
80123;SDS011;69433;48.642;9.142;2023-06-04T14:21:25;3.60;;;2.70;;
80123;SDS011;69433;48.642;9.142;2023-06-04T14:24:00;3.05;;;2.55;;
80123;SDS011;69433;48.642;9.142;2023-06-04T14:26:25;3.10;;;2.67;;
80123;SDS011;69433;48.642;9.142;2023-06-04T14:28:50;3.92;;;2.50;;
80123;SDS011;69433;48.642;9.142;2023-06-04T14:31:16;3.60;;;2.85;;
80123;SDS011;69433;48.642;9.142;2023-06-04T14:33:41;3.42;;;2.63;;
80123;SDS011;69433;48.642;9.142;2023-06-04T14:36:06;3.63;;;2.90;;
80123;SDS011;69433;48.642;9.142;2023-06-04T14:38:37;3.72;;;2.70;;
80123;SDS011;69433;48.642;9.142;2023-06-04T14:41:02;3.83;;;2.92;;
80123;SDS011;69433;48.642;9.142;2023-06-04T14:43:28;3.97;;;2.63;;
80123;SDS011;69433;48.642;9.142;2023-06-04T14:45:53;3.22;;;2.70;;
80123;SDS011;69433;48.642;9.142;2023-06-04T14:48:18;3.88;;;3.00;;
80123;SDS011;69433;48.642;9.142;2023-06-04T14:50:44;3.03;;;2.72;;
80123;SDS011;69433;48.642;9.142;2023-06-04T14:53:10;4.22;;;3.10;;
80123;SDS011;69433;48.642;9.142;2023-06-04T14:55:36;3.53;;;2.72;;
80123;SDS011;69433;48.642;9.142;2023-06-04T14:58:01;3.53;;;2.60;;
80123;SDS011;69433;48.642;9.142;2023-06-04T15:00:28;3.40;;;2.83;;
80123;SDS011;69433;48.642;9.142;2023-06-04T15:02:53;3.38;;;2.55;;